Flight Track Log - Related Links

Times and Time Zones

All times are in EDT time to prevent confusion due to time zone crossing. See the FLG3729 flight status page for this flight to view local times or setup timezone preferences in your user account.

Time Position Orientation Groundspeed Altitude Reporting Facility
EDT Latitude Longitude Course Direction KTS MPH feet Rate Location/Type
Mon 05:58:15 AM 42.7672 -73.8061 283° West 154 177 1,300  Level Boston Center
Mon 05:59:22 AM 42.8106 -73.8494 324° Northwest 184 212 4,000 2,304 Climbing Boston Center
Mon 06:00:20 AM 42.8433 -73.9011 311° West 218 251 6,100 2,441 Climbing Boston Center
Mon 06:01:00 AM 42.8242 -74.2688 281° West  Level FlightAware Approximate
Mon 06:01:20 AM 42.8861 -73.9675 311° West 234 269 8,800  Level Boston Center
Mon 06:02:00 AM 42.8426 -74.3889 283° West  Level FlightAware Approximate
Mon 06:02:20 AM 42.9414 -74.0483 313° West 242 278 11,000  Level Boston Center
Mon 06:03:00 AM 42.8626 -74.5086 283° West  Level FlightAware Approximate
Mon 06:03:20 AM 42.9756 -74.1314 299° West 271 312 12,700  Level Boston Center
Mon 06:04:20 AM 42.9883 -74.2567 278° West 288 331 14,400 1,550 Climbing Boston Center
Mon 06:05:20 AM 42.9972 -74.3419 278° West 320 368 15,800 1,773 Climbing Boston Center
Mon 06:06:32 AM 43.0111 -74.4986 277° West 330 380 18,300 2,091 Climbing Boston Center
Mon 06:07:32 AM 43.0253 -74.6439 278° West 330 380 20,400 1,700 Climbing Boston Center
Mon 06:08:32 AM 43.0353 -74.7667 276° West 330 380 21,700 1,350 Climbing Boston Center
Mon 06:09:32 AM 43.0472 -74.8950 277° West 335 386 23,100 1,250 Climbing Boston Center
Mon 06:10:32 AM 43.0611 -75.0206 279° West 335 386 24,200 1,100 Climbing Boston Center
Mon 06:11:32 AM 43.0728 -75.1461 277° West 335 386 25,300 1,050 Climbing Boston Center
Mon 06:12:32 AM 43.0842 -75.2744 277° West 335 386 26,300 900 Climbing Boston Center
Mon 06:13:32 AM 43.0956 -75.4058 277° West 340 391 27,100 750 Climbing Boston Center
Mon 06:14:32 AM 43.1067 -75.5344 277° West 340 391 27,800 450 Climbing Boston Center
Mon 06:15:32 AM 43.1161 -75.6431 277° West 345 397 28,000 100 Climbing Boston Center
Mon 06:16:32 AM 43.1264 -75.7886 276° West 355 409 28,000  Level Boston Center
Mon 06:17:32 AM 43.1389 -75.9289 277° West 361 415 28,000  Level Boston Center
Mon 06:19:45 AM 43.1581 -76.2369 275° West 371 427 28,000  Level Cleveland Center
Mon 06:20:45 AM 43.1467 -76.3800 264° West 371 427 28,000  Level Cleveland Center
Mon 06:21:45 AM 43.1347 -76.5144 263° West 371 427 28,000  Level Cleveland Center
Mon 06:22:45 AM 43.1208 -76.6519 262° West 371 427 28,000  Level Cleveland Center
Mon 06:23:45 AM 43.1092 -76.8036 264° West 371 427 28,000  Level Cleveland Center
Mon 06:24:45 AM 43.0950 -76.9439 262° West 371 427 28,000  Level Cleveland Center
Mon 06:25:45 AM 43.0844 -77.0781 264° West 371 427 28,000  Level Cleveland Center
Mon 06:26:45 AM 43.0700 -77.2181 262° West 371 427 28,000  Level Cleveland Center
Mon 06:27:45 AM 43.0592 -77.3522 264° West 371 427 28,000  Level Cleveland Center
Mon 06:28:45 AM 43.0442 -77.4894 262° West 371 427 28,000  Level Cleveland Center
Mon 06:29:45 AM 43.0328 -77.6150 263° West 371 427 28,000  Level Cleveland Center
Mon 06:30:45 AM 43.0194 -77.7519 262° West 371 427 28,000  Level Cleveland Center
Mon 06:31:45 AM 43.0061 -77.8917 263° West 371 427 28,000  Level Cleveland Center
Mon 06:32:45 AM 42.9928 -78.0314 263° West 371 427 28,000  Level Cleveland Center
Mon 06:33:45 AM 42.9792 -78.1711 262° West 371 427 28,000  Level Cleveland Center
Mon 06:34:45 AM 42.9653 -78.3164 263° West 371 427 28,000  Level Cleveland Center
Mon 06:35:45 AM 42.9492 -78.4558 261° West 371 427 28,000  Level Cleveland Center
Mon 06:36:45 AM 42.9350 -78.6011 262° West 376 433 28,000  Level Cleveland Center
Mon 06:37:45 AM 42.9167 -78.7519 261° West 394 453 28,000  Level Cleveland Center
Mon 06:38:45 AM 42.8939 -78.9028 258° West 399 459 28,000  Level Cleveland Center
Mon 06:39:45 AM 42.8731 -79.0533 259° West 404 465 28,000  Level Cleveland Center
Mon 06:40:45 AM 42.8481 -79.2097 258° West 416 479 28,000  Level Cleveland Center
Mon 06:41:45 AM 42.8269 -79.3631 259° West 416 479 28,000  Level Cleveland Center
Mon 06:42:45 AM 42.8033 -79.5219 259° West 416 479 28,000  Level Cleveland Center
Mon 06:43:45 AM 42.7817 -79.6753 259° West 421 484 28,000  Level Cleveland Center
Mon 06:44:45 AM 42.7558 -79.8339 258° West 426 490 28,000  Level Cleveland Center
Mon 06:45:45 AM 42.7422 -80.0122 264° West 435 501 28,000  Level Cleveland Center
Mon 06:46:45 AM 42.7389 -80.1733 268° West 435 501 28,000  Level Cleveland Center
Mon 06:47:45 AM 42.7308 -80.3317 266° West 435 501 28,000  Level Cleveland Center
Mon 06:48:45 AM 42.7250 -80.4956 267° West 440 506 28,000 -50 Level Cleveland Center
Mon 06:49:45 AM 42.7164 -80.6539 266° West 435 501 27,900 -350 Descending Cleveland Center
Mon 06:50:45 AM 42.7081 -80.8233 266° West 435 501 27,300 -550 Descending Cleveland Center
Mon 06:51:45 AM 42.6972 -80.9672 264° West 440 506 26,800 -600 Descending Cleveland Center
Mon 06:52:45 AM 42.6778 -81.1311 261° West 440 506 26,100 -850 Descending Cleveland Center
Mon 06:53:45 AM 42.6581 -81.2947 261° West 445 512 25,100 -1,000 Descending Cleveland Center
Mon 06:54:45 AM 42.6403 -81.4639 262° West 458 527 24,100 -1,350 Descending Cleveland Center
Mon 06:55:45 AM 42.6222 -81.6272 262° West 448 516 22,400 -1,850 Descending Cleveland Center
Mon 06:56:45 AM 42.5997 -81.7989 260° West 428 493 20,400 -1,950 Descending Cleveland Center
Mon 06:57:45 AM 42.5814 -81.9481 261° West 415 478 18,500 -1,850 Descending Cleveland Center
Mon 06:58:45 AM 42.5628 -82.0886 260° West 403 464 16,700 -1,750 Descending Cleveland Center
Mon 06:59:45 AM 42.5464 -82.2261 261° West 390 449 15,000 -1,696 Descending Cleveland Center
Mon 07:00:17 AM 42.5411 -82.2964 264° West 363 418 14,100 -1,600 Descending Cleveland Center
Mon 07:00:45 AM 42.5319 -82.3611 259° West 373 429 13,400 -1,592 Descending Cleveland Center
Mon 07:01:06 AM 42.5269 -82.4061 261° West 349 402 12,800 -1,300 Descending Cleveland Center
Mon 07:01:45 AM 42.5156 -82.4789 258° West 350 403 12,100 -787 Descending Cleveland Center
Mon 07:02:07 AM 42.5106 -82.5183 260° West 284 327 12,000 -300 Descending Cleveland Center
Mon 07:02:45 AM 42.4950 -82.5769 250° West 312 359 11,800 -700 Descending Cleveland Center
Mon 07:03:07 AM 42.4881 -82.6133 256° West 267 307 11,300 -1,200 Descending Cleveland Center
Mon 07:03:45 AM 42.4619 -82.6714 239° Southwest 286 329 10,600 -1,075 Descending Cleveland Center
Mon 07:04:14 AM 42.4486 -82.7189 249° West 274 315 10,100 -1,200 Descending Cleveland Center
Mon 07:04:45 AM 42.4311 -82.7633 242° Southwest 281 323 9,400 -1,574 Descending Cleveland Center
Mon 07:05:15 AM 42.4156 -82.8106 246° West 271 312 8,500 -1,600 Descending Cleveland Center
Mon 07:05:45 AM 42.3981 -82.8522 240° Southwest 270 311 7,800 -1,254 Descending Cleveland Center
Mon 07:06:22 AM 42.3886 -82.9108 258° West 247 284 7,100 -800 Descending Cleveland Center
Mon 07:06:45 AM 42.3839 -82.9417 258° West 259 298 7,000 -179 Descending Cleveland Center
Mon 07:07:29 AM 42.3761 -83.0117 261° West 248 285 6,900 -500 Descending Cleveland Center
Mon 07:07:45 AM 42.3694 -83.0339 248° West 253 291 6,500 -1,574 Descending Cleveland Center
Mon 07:08:30 AM 42.3617 -83.1039 261° West 250 288 5,300 -1,400 Descending Cleveland Center
Mon 07:08:45 AM 42.3569 -83.1261 254° West 253 291 5,100 -218 Descending Cleveland Center
Mon 07:09:25 AM 42.3497 -83.1792 260° West 194 223 5,100 -100 Level Cleveland Center
Mon 07:09:45 AM 42.3428 -83.2014 247° West 244 281 5,000 -787 Descending Cleveland Center
Mon 07:10:26 AM 42.3253 -83.2372 237° Southwest 150 173 4,300 -1,294 Descending Cleveland Center
Mon 07:11:27 AM 42.2972 -83.2753 225° Southwest 136 157 2,800 -1,475 Descending Cleveland Center

Login

Don't have an account? Register now (free) for customized features, flight alerts, and more!